地図

経路データ

SID SEASON NUMBER BASIN SUBBASIN NAME ISO_TIME NATURE LAT LON WMO_WIND WMO_PRES WMO_AGENCY TRACK_TYPE DIST2LAND LANDFALL IFLAG USA_AGENCY USA_ATCF_ID USA_LAT USA_LON USA_RECORD USA_STATUS USA_WIND USA_PRES USA_SSHS USA_R34_NE USA_R34_SE USA_R34_SW USA_R34_NW USA_R50_NE USA_R50_SE USA_R50_SW USA_R50_NW USA_R64_NE USA_R64_SE USA_R64_SW USA_R64_NW USA_POCI USA_ROCI USA_RMW USA_EYE TOKYO_LAT TOKYO_LON TOKYO_GRADE TOKYO_WIND TOKYO_PRES TOKYO_R50_DIR TOKYO_R50_LONG TOKYO_R50_SHORT TOKYO_R30_DIR TOKYO_R30_LONG TOKYO_R30_SHORT TOKYO_LAND CMA_LAT CMA_LON CMA_CAT CMA_WIND CMA_PRES HKO_LAT HKO_LON HKO_CAT HKO_WIND HKO_PRES NEWDELHI_LAT NEWDELHI_LON NEWDELHI_GRADE NEWDELHI_WIND NEWDELHI_PRES NEWDELHI_CI NEWDELHI_DP NEWDELHI_POCI REUNION_LAT REUNION_LON REUNION_TYPE REUNION_WIND REUNION_PRES REUNION_TNUM REUNION_CI REUNION_RMW REUNION_R34_NE REUNION_R34_SE REUNION_R34_SW REUNION_R34_NW REUNION_R50_NE REUNION_R50_SE REUNION_R50_SW REUNION_R50_NW REUNION_R64_NE REUNION_R64_SE REUNION_R64_SW REUNION_R64_NW BOM_LAT BOM_LON BOM_TYPE BOM_WIND BOM_PRES BOM_TNUM BOM_CI BOM_RMW BOM_R34_NE BOM_R34_SE BOM_R34_SW BOM_R34_NW BOM_R50_NE BOM_R50_SE BOM_R50_SW BOM_R50_NW BOM_R64_NE BOM_R64_SE BOM_R64_SW BOM_R64_NW BOM_ROCI BOM_POCI BOM_EYE BOM_POS_METHOD BOM_PRES_METHOD NADI_LAT NADI_LON NADI_CAT NADI_WIND NADI_PRES WELLINGTON_LAT WELLINGTON_LON WELLINGTON_WIND WELLINGTON_PRES DS824_LAT DS824_LON DS824_STAGE DS824_WIND DS824_PRES TD9636_LAT TD9636_LON TD9636_STAGE TD9636_WIND TD9636_PRES TD9635_LAT TD9635_LON TD9635_WIND TD9635_PRES TD9635_ROCI NEUMANN_LAT NEUMANN_LON NEUMANN_CLASS NEUMANN_WIND NEUMANN_PRES MLC_LAT MLC_LON MLC_CLASS MLC_WIND MLC_PRES USA_GUST BOM_GUST BOM_GUST_PER REUNION_GUST REUNION_GUST_PER USA_SEAHGT USA_SEARAD_NE USA_SEARAD_SE USA_SEARAD_SW USA_SEARAD_NW STORM_SPEED STORM_DIR
1919056S14065 1919 2 SI MM NOT_NAMED 1919-02-25 06:00:00 NR -13.6000 65.4000 reunion main 1095 1064 _____O________ -1 -13.6000 65.4000 99 9.90000 6 229
1919056S14065 1919 2 SI MM NOT_NAMED 1919-02-25 09:00:00 NR -13.7879 65.1826 main 1064 1033 _____P________ -1 -13.7879 65.1826 99 6 228
1919056S14065 1919 2 SI MM NOT_NAMED 1919-02-25 12:00:00 NR -13.9792 64.9608 main 1033 994 _____P________ -1 -13.9792 64.9608 99 6 228
1919056S14065 1919 2 SI MM NOT_NAMED 1919-02-25 15:00:00 NR -14.1775 64.7303 main 994 994 _____P________ -1 -14.1775 64.7303 99 2 190
1919056S14065 1919 2 SI MM NOT_NAMED 1919-02-25 18:00:00 NR -14.1491 64.9296 main 1017 1010 _____P____O___ -1 -14.3864 64.4870 99 -13.2000 66.7000 2 2 93
1919056S14065 1919 2 SI MM NOT_NAMED 1919-02-25 21:00:00 NR -14.1867 64.9131 main 1010 1002 _____P____P___ -1 -14.6096 64.2267 99 -13.3408 66.2859 2 2 243
1919056S14065 1919 2 SI MM NOT_NAMED 1919-02-26 00:00:00 TS -14.2234 64.7815 main 1002 970 _____P___OP___ -1 -14.8505 63.9450 99 -13.9000 64.9000 TC 35 -13.4951 65.8573 2 5 249
1919056S14065 1919 2 SI MM NOT_NAMED 1919-02-26 03:00:00 TS -14.3539 64.4731 main 963 908 _____P___PP___ -1 -15.1128 63.6376 99 -14.1904 64.2903 TC 35 -13.6768 65.4001 2 9 243
1919056S14065 1919 2 SI MM NOT_NAMED 1919-02-26 06:00:00 TS -14.6091 63.9909 reunion main 908 846 _____O___OO___ -1 -15.4000 63.3000 99 9.90000 -14.5000 63.7000 TC 35 -13.9000 64.9000 2 11 240
1919056S14065 1919 2 SI MM NOT_NAMED 1919-02-26 09:00:00 TS -14.9100 63.4739 main 846 784 _____P___PP___ -1 -15.7138 62.9303 99 -14.8423 63.1423 TC 35 -14.1739 64.3489 2 12 237
1919056S14065 1919 2 SI MM NOT_NAMED 1919-02-26 12:00:00 TS -15.2463 62.9673 main 784 715 _____P___OP___ -1 -16.0486 62.5368 99 -15.2000 62.6000 TC 35 -14.4903 63.7651 2 12 235
1919056S14065 1919 2 SI MM NOT_NAMED 1919-02-26 15:00:00 TS -15.5921 62.4463 main 707 653 _____P___PP___ -1 -16.3974 62.1305 99 -15.5425 62.0348 TC 35 -14.8364 63.1737 2 12 235
1919056S14065 1919 2 SI MM NOT_NAMED 1919-02-26 18:00:00 TS -15.9509 61.9408 main 638 584 _____P___OO___ -1 -16.7528 61.7224 99 -15.9000 61.5000 TC 35 -15.2000 62.6000 2 12 232
1919056S14065 1919 2 SI MM NOT_NAMED 1919-02-26 21:00:00 TS -16.3346 61.4492 main 577 515 _____P___PP___ -1 -17.1077 61.3238 99 -16.3150 60.9976 TC 35 -15.5810 62.0261 2 12 230
1919056S14065 1919 2 SI MM NOT_NAMED 1919-02-27 00:00:00 TS -16.7093 61.0090 main 515 469 _____P___OP___ -1 -17.4552 60.9462 99 -16.7000 60.6000 TC 35 -15.9727 61.4809 2 10 227
1919056S14065 1919 2 SI MM NOT_NAMED 1919-02-27 03:00:00 TS -17.0379 60.6502 main 469 423 _____P___PP___ -1 -17.7882 60.6010 99 -16.9723 60.3547 TC 35 -16.3530 60.9950 2 9 225
1919056S14065 1919 2 SI MM NOT_NAMED 1919-02-27 06:00:00 TS -17.3333 60.3667 reunion main 423 383 _____O___OO___ -1 -18.1000 60.3000 99 9.90000 -17.2000 60.2000 TC 35 -16.7000 60.6000 2 7 221
1919056S14065 1919 2 SI MM NOT_NAMED 1919-02-27 09:00:00 TS -17.5944 60.1397 main 376 353 _____P___PP___ -1 -18.3677 60.0502 99 -17.4425 60.0424 TC 35 -16.9730 60.3264 2 6 217
1919056S14065 1919 2 SI MM NOT_NAMED 1919-02-27 12:00:00 TS -17.8437 59.9610 main 353 314 _____P___OP___ -1 -18.6170 59.8394 99 -17.7000 59.9000 TC 35 -17.2141 60.1436 2 6 212
1919056S14065 1919 2 SI MM NOT_NAMED 1919-02-27 15:00:00 TS -18.0947 59.8100 main 314 290 _____P___PP___ -1 -18.8510 59.6660 99 -17.9850 59.7499 TC 35 -17.4482 60.0141 2 6 208
1919056S14065 1919 2 SI MM NOT_NAMED 1919-02-27 18:00:00 TS -18.3576 59.6761 main 283 252 _____P___OO___ -1 -19.0729 59.5282 99 -18.3000 59.6000 TC 35 -17.7000 59.9000 2 6 206
1919056S14065 1919 2 SI MM NOT_NAMED 1919-02-27 21:00:00 TS -18.6530 59.5274 main 245 223 _____P___PP___ -1 -19.2857 59.4244 99 -18.6575 59.4351 TC 35 -18.0156 59.7227 2 6 204
1919056S14065 1919 2 SI MM NOT_NAMED 1919-02-28 00:00:00 TS -18.9475 59.4027 main 223 195 _____P___OP___ -1 -19.4925 59.3529 99 -19.0000 59.3000 TC 35 -18.3500 59.5553 2 6 199
1919056S14065 1919 2 SI MM NOT_NAMED 1919-02-28 03:00:00 TS -19.2152 59.3166 main 195 180 _____P___PP___ -1 -19.6962 59.3120 99 -19.2650 59.2274 TC 35 -18.6844 59.4102 2 5 194
1919056S14065 1919 2 SI MM NOT_NAMED 1919-02-28 06:00:00 TS -19.4636 59.2727 reunion main 180 160 _____O___OO___ -1 -19.9000 59.3000 99 9.90000 -19.5000 59.2000 TC 35 -19.0000 59.3000 2 5 188
1919056S14065 1919 2 SI MM NOT_NAMED 1919-02-28 09:00:00 TS -19.6897 59.2429 main 160 152 _____P___PP___ -1 -20.0691 59.2765 99 -19.7450 59.1950 TC 35 -19.2828 59.2332 2 5 185
1919056S14065 1919 2 SI MM NOT_NAMED 1919-02-28 12:00:00 TS -19.9417 59.2428 main 152 149 _____P___OP___ -1 -20.2302 59.2840 99 -20.0000 59.2000 TC 35 -19.5374 59.2022 2 5 175
1919056S14065 1919 2 SI MM NOT_NAMED 1919-02-28 15:00:00 NR -20.1869 59.2790 main 156 156 _____P____P___ -1 -20.3936 59.3210 99 TC -19.7734 59.1951 2 5 169
1919056S14065 1919 2 SI MM NOT_NAMED 1919-02-28 18:00:00 NR -20.4556 59.3489 main 157 157 _____P____O___ -1 -20.5695 59.3862 99 -20.0000 59.2000 2 6 162
1919056S14065 1919 2 SI MM NOT_NAMED 1919-02-28 21:00:00 NR -20.7678 59.4780 main 185 185 _____P________ -1 -20.7678 59.4780 99 2 6 160
1919056S14065 1919 2 SI MM NOT_NAMED 1919-03-01 00:00:00 TS -20.9991 59.5561 main 202 202 _____P________ -1 -20.9989 59.5951 99 2 6 164
1919056S14065 1919 2 SI MM NOT_NAMED 1919-03-01 03:00:00 TS -21.3645 59.6582 main 230 230 _____P________ -1 -21.2729 59.7362 99 2 7 168
1919056S14065 1919 2 SI MM NOT_NAMED 1919-03-01 06:00:00 TS -21.7125 59.7250 reunion main 247 247 _____O________ -1 -21.6000 59.9000 99 9.90000 9 170
1919056S14065 1919 2 SI MM NOT_NAMED 1919-03-01 09:00:00 TS -22.1974 59.8138 main 288 288 _____P________ -1 -22.0610 60.0925 99 10 169
1919056S14065 1919 2 SI MM NOT_NAMED 1919-03-01 12:00:00 TS -22.6750 59.9324 main 334 334 _____P________ -1 -22.5811 60.3151 99 10 166
1919056S14065 1919 2 SI MM NOT_NAMED 1919-03-01 15:00:00 TS -23.1659 60.0670 main 390 390 _____P________ -1 -23.1399 60.5595 99 10 163
1919056S14065 1919 2 SI MM NOT_NAMED 1919-03-01 18:00:00 TS -23.6607 60.2517 main 446 446 _____P________ -1 -23.7170 60.8172 99 10 160
1919056S14065 1919 2 SI MM NOT_NAMED 1919-03-01 21:00:00 TS -24.1364 60.4615 main 494 494 _____P________ -1 -24.2919 61.0794 99 11 155
1919056S14065 1919 2 SI MM NOT_NAMED 1919-03-02 00:00:00 TS -24.6472 60.7551 main 557 557 _____P________ -1 -24.8442 61.3369 99 12 148
1919056S14065 1919 2 SI MM NOT_NAMED 1919-03-02 03:00:00 NR -25.1359 61.1363 main 621 621 _____P________ -1 -25.3536 61.5803 99 12 146
1919056S14065 1919 2 SI MM NOT_NAMED 1919-03-02 06:00:00 NR -25.6800 61.5200 reunion main 698 698 _____O________ -1 -25.8000 61.8000 99 9.90000 13 143
1919056S14065 1919 2 SI MM NOT_NAMED 1919-03-02 09:00:00 NR -26.1684 61.9882 main 773 773 _____P________ -1 -26.1684 61.9882 99 10 144
1919056S14065 1919 2 SI MM NOT_NAMED 1919-03-02 12:00:00 NR -26.4642 62.1466 main 806 806 _____P________ -1 -26.4642 62.1466 99 6 154
1919056S14065 1919 2 SI MM NOT_NAMED 1919-03-02 15:00:00 NR -26.6981 62.2790 main 836 836 _____P________ -1 -26.6981 62.2790 99 5 152
1919056S14065 1919 2 SI MM NOT_NAMED 1919-03-02 18:00:00 NR -26.8803 62.3896 main 860 860 _____P________ -1 -26.8803 62.3896 99 4 151
1919056S14065 1919 2 SI MM NOT_NAMED 1919-03-02 21:00:00 NR -27.0212 62.4826 main 875 875 _____P________ -1 -27.0212 62.4826 99 3 149
1919056S14065 1919 2 SI MM NOT_NAMED 1919-03-03 00:00:00 NR -27.1313 62.5624 main 889 889 _____P________ -1 -27.1313 62.5624 99 2 146
1919056S14065 1919 2 SI MM NOT_NAMED 1919-03-03 03:00:00 NR -27.2208 62.6334 main 899 899 _____P________ -1 -27.2208 62.6334 99 2 144
1919056S14065 1919 2 SI MM NOT_NAMED 1919-03-03 06:00:00 NR -27.3000 62.7000 reunion main 913 _____O________ -1 -27.3000 62.7000 99 9.90000 2 145

IBTrACS Databaseについて

本データベースは、米国NOAAが公開する1842年以降の世界の熱帯低気圧のベストトラックデータアーカイブInternational Best Track Archive for Climate Stewardship (IBTrACS)を、ウェブで閲覧しやすい形式に変換したものです。

最終更新日:2021-12-06